ETH819 HAAB-FQMA
Flight info
| Callsign | ETH819 |
|---|---|
| Flight time | N/A |
| Altitude | 32000 |
| Route | SHALA2A SHALA UM308 RUDOL/N0478F330 UM308 LOTAS/N0481F320 UM441 APGEP/N0475F340 UM441 LOSIN UM315 DVL UG656 TMA48/N0469F360 UG656 EGPON EGPON1B |
| Aircraft | B738/M-SDE2E3FGHIRWXY/LB1 |
Departure
| Time | N/A |
|---|---|
| Airport | Addis Ababa Bole International Airport (HAAB) |
Arrival
| Time | 2026-04-29 10:58 |
|---|---|
| Airport | Maputo Airport (FQMA) |
| Time | Latitude | Longitude | Altitude | Speed | Heading |
|---|---|---|---|---|---|
| 2026-04-29 09:53 | -19.36077 | 33.31133 | 34223 ft | 457 kts | 188° |
| 2026-04-29 09:53 | -19.42404 | 33.30477 | 34223 ft | 456 kts | 188° |
| 2026-04-29 09:54 | -19.48687 | 33.29825 | 34190 ft | 456 kts | 188° |
| 2026-04-29 09:54 | -19.54997 | 33.29170 | 34184 ft | 454 kts | 188° |
| 2026-04-29 09:55 | -19.61284 | 33.28517 | 34184 ft | 452 kts | 188° |
| 2026-04-29 09:55 | -19.67558 | 33.27864 | 34177 ft | 452 kts | 188° |
| 2026-04-29 09:56 | -19.73781 | 33.27217 | 34184 ft | 452 kts | 188° |
| 2026-04-29 09:56 | -19.80053 | 33.26563 | 34183 ft | 452 kts | 188° |
| 2026-04-29 09:57 | -19.86337 | 33.25908 | 34179 ft | 453 kts | 188° |
| 2026-04-29 09:57 | -19.92589 | 33.25256 | 34166 ft | 454 kts | 188° |
| 2026-04-29 09:58 | -19.98880 | 33.24599 | 34174 ft | 454 kts | 188° |
| 2026-04-29 09:58 | -20.05178 | 33.23941 | 34170 ft | 454 kts | 188° |
| 2026-04-29 09:59 | -20.11473 | 33.23283 | 34170 ft | 454 kts | 188° |
| 2026-04-29 09:59 | -20.17778 | 33.22623 | 34168 ft | 455 kts | 188° |
| 2026-04-29 10:00 | -20.24048 | 33.21966 | 34158 ft | 456 kts | 188° |
| 2026-04-29 10:00 | -20.30362 | 33.21305 | 34157 ft | 456 kts | 188° |
| 2026-04-29 10:01 | -20.36683 | 33.20642 | 34150 ft | 456 kts | 188° |
| 2026-04-29 10:01 | -20.43005 | 33.19978 | 34159 ft | 456 kts | 188° |
| 2026-04-29 10:02 | -20.49281 | 33.19318 | 34173 ft | 456 kts | 188° |
| 2026-04-29 10:02 | -20.55620 | 33.18652 | 34159 ft | 456 kts | 188° |
| 2026-04-29 10:03 | -20.61914 | 33.17989 | 34164 ft | 456 kts | 188° |
| 2026-04-29 10:03 | -20.68241 | 33.17323 | 34160 ft | 456 kts | 188° |
| 2026-04-29 10:04 | -20.73497 | 33.16769 | 34165 ft | 456 kts | 188° |
| 2026-04-29 10:04 | -20.79821 | 33.16101 | 34162 ft | 456 kts | 188° |
| 2026-04-29 10:05 | -20.86141 | 33.15434 | 34162 ft | 456 kts | 188° |
| 2026-04-29 10:05 | -20.92454 | 33.14767 | 34159 ft | 456 kts | 188° |
| 2026-04-29 10:06 | -20.98764 | 33.14100 | 34164 ft | 455 kts | 188° |
| 2026-04-29 10:06 | -21.05066 | 33.13432 | 34168 ft | 455 kts | 188° |
| 2026-04-29 10:07 | -21.11363 | 33.12765 | 34167 ft | 455 kts | 188° |
| 2026-04-29 10:07 | -21.17622 | 33.12100 | 34164 ft | 454 kts | 188° |
| 2026-04-29 10:08 | -21.23911 | 33.11431 | 34166 ft | 454 kts | 188° |
| 2026-04-29 10:08 | -21.30206 | 33.10761 | 34164 ft | 454 kts | 188° |
| 2026-04-29 10:09 | -21.36500 | 33.10090 | 34162 ft | 454 kts | 189° |
| 2026-04-29 10:09 | -21.42747 | 33.09423 | 34158 ft | 454 kts | 189° |
| 2026-04-29 10:10 | -21.49041 | 33.08751 | 34162 ft | 453 kts | 189° |
| 2026-04-29 10:10 | -21.55319 | 33.08079 | 34159 ft | 454 kts | 189° |
| 2026-04-29 10:11 | -21.61611 | 33.07406 | 34159 ft | 454 kts | 189° |
| 2026-04-29 10:11 | -21.67851 | 33.06738 | 34163 ft | 454 kts | 189° |
| 2026-04-29 10:12 | -21.74141 | 33.06064 | 34154 ft | 454 kts | 189° |
| 2026-04-29 10:12 | -21.80436 | 33.05389 | 34155 ft | 454 kts | 189° |
| 2026-04-29 10:13 | -21.86692 | 33.04717 | 34157 ft | 454 kts | 189° |
| 2026-04-29 10:13 | -21.92991 | 33.04040 | 34156 ft | 454 kts | 189° |
| 2026-04-29 10:14 | -21.99272 | 33.03364 | 34158 ft | 454 kts | 189° |
| 2026-04-29 10:14 | -22.05566 | 33.02687 | 34154 ft | 454 kts | 189° |
| 2026-04-29 10:15 | -22.11826 | 33.02012 | 34155 ft | 454 kts | 189° |
| 2026-04-29 10:15 | -22.18116 | 33.01334 | 34156 ft | 454 kts | 190° |
| 2026-04-29 10:16 | -22.24405 | 33.00655 | 34162 ft | 453 kts | 190° |
| 2026-04-29 10:16 | -22.30689 | 32.99977 | 34162 ft | 453 kts | 190° |
| 2026-04-29 10:17 | -22.36936 | 32.99301 | 34169 ft | 453 kts | 190° |
| 2026-04-29 10:17 | -22.43209 | 32.98622 | 34164 ft | 453 kts | 190° |
| 2026-04-29 10:18 | -22.49474 | 32.97943 | 34166 ft | 453 kts | 190° |
| 2026-04-29 10:18 | -22.55758 | 32.97262 | 34162 ft | 452 kts | 191° |
| 2026-04-29 10:19 | -22.61990 | 32.96586 | 34165 ft | 452 kts | 191° |
| 2026-04-29 10:19 | -22.68251 | 32.95905 | 34162 ft | 452 kts | 191° |
| 2026-04-29 10:20 | -22.74518 | 32.95224 | 34167 ft | 451 kts | 191° |
| 2026-04-29 10:20 | -22.80735 | 32.94547 | 34170 ft | 451 kts | 191° |
| 2026-04-29 10:21 | -22.86985 | 32.93867 | 34171 ft | 451 kts | 191° |
| 2026-04-29 10:21 | -22.93229 | 32.93186 | 34180 ft | 451 kts | 191° |
| 2026-04-29 10:22 | -22.99478 | 32.92504 | 34180 ft | 451 kts | 191° |
| 2026-04-29 10:22 | -23.05724 | 32.91821 | 34180 ft | 451 kts | 191° |
| 2026-04-29 10:23 | -23.11971 | 32.91138 | 34182 ft | 451 kts | 191° |
| 2026-04-29 10:23 | -23.18209 | 32.90456 | 34185 ft | 450 kts | 191° |
| 2026-04-29 10:24 | -23.24410 | 32.89776 | 34187 ft | 450 kts | 191° |
| 2026-04-29 10:24 | -23.30648 | 32.89092 | 34189 ft | 450 kts | 192° |
| 2026-04-29 10:25 | -23.36867 | 32.88412 | 34179 ft | 444 kts | 192° |
| 2026-04-29 10:25 | -23.42972 | 32.87744 | 34186 ft | 440 kts | 192° |
| 2026-04-29 10:26 | -23.49082 | 32.87069 | 33772 ft | 440 kts | 192° |
| 2026-04-29 10:26 | -23.52109 | 32.86737 | 33375 ft | 434 kts | 192° |
| 2026-04-29 10:26 | -23.55066 | 32.86413 | 32966 ft | 430 kts | 192° |
| 2026-04-29 10:27 | -23.61003 | 32.85761 | 32144 ft | 424 kts | 192° |
| 2026-04-29 10:27 | -23.63924 | 32.85439 | 31726 ft | 421 kts | 192° |
| 2026-04-29 10:27 | -23.66832 | 32.85118 | 31323 ft | 418 kts | 193° |
| 2026-04-29 10:28 | -23.69722 | 32.84798 | 30896 ft | 417 kts | 193° |
| 2026-04-29 10:28 | -23.72568 | 32.84483 | 30498 ft | 415 kts | 193° |
| 2026-04-29 10:28 | -23.75431 | 32.84167 | 30040 ft | 413 kts | 193° |
| 2026-04-29 10:28 | -23.78286 | 32.83851 | 29591 ft | 410 kts | 193° |
| 2026-04-29 10:29 | -23.81115 | 32.83539 | 29151 ft | 407 kts | 193° |
| 2026-04-29 10:29 | -23.83921 | 32.83229 | 28726 ft | 403 kts | 193° |
| 2026-04-29 10:29 | -23.86707 | 32.82921 | 28308 ft | 400 kts | 193° |
| 2026-04-29 10:29 | -23.89466 | 32.82615 | 27904 ft | 397 kts | 192° |
| 2026-04-29 10:30 | -23.92209 | 32.82311 | 27490 ft | 394 kts | 192° |
| 2026-04-29 10:30 | -23.94929 | 32.82009 | 27096 ft | 392 kts | 192° |
| 2026-04-29 10:30 | -23.97634 | 32.81709 | 26696 ft | 390 kts | 192° |
| 2026-04-29 10:30 | -24.00300 | 32.81412 | 26280 ft | 388 kts | 192° |
| 2026-04-29 10:31 | -24.02985 | 32.81114 | 25875 ft | 386 kts | 192° |
| 2026-04-29 10:31 | -24.05654 | 32.80817 | 25471 ft | 384 kts | 192° |
| 2026-04-29 10:31 | -24.08310 | 32.80523 | 25071 ft | 383 kts | 192° |
| 2026-04-29 10:31 | -24.10959 | 32.80228 | 24650 ft | 381 kts | 192° |
| 2026-04-29 10:32 | -24.13596 | 32.79935 | 24230 ft | 380 kts | 192° |
| 2026-04-29 10:32 | -24.16225 | 32.79641 | 23820 ft | 379 kts | 191° |
| 2026-04-29 10:32 | -24.18844 | 32.79349 | 23364 ft | 377 kts | 191° |
| 2026-04-29 10:32 | -24.21442 | 32.79059 | 22954 ft | 374 kts | 191° |
| 2026-04-29 10:33 | -24.23998 | 32.78774 | 22538 ft | 372 kts | 191° |
| 2026-04-29 10:33 | -24.26564 | 32.78487 | 22143 ft | 369 kts | 191° |
| 2026-04-29 10:33 | -24.29117 | 32.78201 | 21761 ft | 366 kts | 191° |
| 2026-04-29 10:33 | -24.31636 | 32.77919 | 21421 ft | 362 kts | 191° |
| 2026-04-29 10:34 | -24.34131 | 32.77640 | 21085 ft | 359 kts | 191° |
| 2026-04-29 10:34 | -24.36610 | 32.77362 | 20751 ft | 355 kts | 191° |
| 2026-04-29 10:34 | -24.39062 | 32.77087 | 20417 ft | 352 kts | 191° |
| 2026-04-29 10:34 | -24.41491 | 32.76814 | 20091 ft | 349 kts | 191° |
| 2026-04-29 10:35 | -24.43869 | 32.76547 | 19762 ft | 347 kts | 191° |
| 2026-04-29 10:35 | -24.46267 | 32.76277 | 19432 ft | 345 kts | 191° |
| 2026-04-29 10:35 | -24.48662 | 32.76007 | 19088 ft | 344 kts | 191° |
| 2026-04-29 10:35 | -24.51035 | 32.75738 | 18762 ft | 342 kts | 191° |
| 2026-04-29 10:36 | -24.53398 | 32.75426 | 18406 ft | 341 kts | 192° |
| 2026-04-29 10:36 | -24.55716 | 32.75096 | 18065 ft | 338 kts | 192° |
| 2026-04-29 10:36 | -24.58044 | 32.74759 | 17725 ft | 335 kts | 192° |
| 2026-04-29 10:36 | -24.60343 | 32.74426 | 17402 ft | 332 kts | 192° |
| 2026-04-29 10:37 | -24.62620 | 32.74098 | 17094 ft | 328 kts | 192° |
| 2026-04-29 10:37 | -24.64883 | 32.73774 | 16777 ft | 325 kts | 192° |
| 2026-04-29 10:37 | -24.67121 | 32.73454 | 16467 ft | 322 kts | 192° |
| 2026-04-29 10:37 | -24.69343 | 32.73137 | 16165 ft | 320 kts | 192° |
| 2026-04-29 10:38 | -24.71511 | 32.72828 | 15864 ft | 317 kts | 192° |
| 2026-04-29 10:38 | -24.73693 | 32.72517 | 15563 ft | 314 kts | 192° |
| 2026-04-29 10:38 | -24.75855 | 32.72209 | 15263 ft | 312 kts | 192° |
| 2026-04-29 10:38 | -24.78000 | 32.71904 | 14978 ft | 310 kts | 191° |
| 2026-04-29 10:39 | -24.80141 | 32.71599 | 14655 ft | 310 kts | 191° |
| 2026-04-29 10:39 | -24.82273 | 32.71295 | 14354 ft | 308 kts | 191° |
| 2026-04-29 10:39 | -24.84387 | 32.70994 | 14070 ft | 305 kts | 191° |
| 2026-04-29 10:39 | -24.86488 | 32.70695 | 13738 ft | 303 kts | 191° |
| 2026-04-29 10:40 | -24.88574 | 32.70398 | 13421 ft | 300 kts | 191° |
| 2026-04-29 10:40 | -24.90634 | 32.70105 | 13116 ft | 298 kts | 191° |
| 2026-04-29 10:40 | -24.92657 | 32.69817 | 12829 ft | 295 kts | 191° |
| 2026-04-29 10:40 | -24.94710 | 32.69525 | 12530 ft | 293 kts | 191° |
| 2026-04-29 10:41 | -24.96703 | 32.69240 | 12276 ft | 292 kts | 191° |
| 2026-04-29 10:41 | -24.98726 | 32.68951 | 11978 ft | 293 kts | 191° |
| 2026-04-29 10:41 | -25.00746 | 32.68662 | 11669 ft | 292 kts | 191° |
| 2026-04-29 10:41 | -25.02759 | 32.68375 | 11377 ft | 290 kts | 191° |
| 2026-04-29 10:42 | -25.04749 | 32.68091 | 11100 ft | 287 kts | 191° |
| 2026-04-29 10:42 | -25.06729 | 32.67808 | 10827 ft | 284 kts | 191° |
| 2026-04-29 10:42 | -25.08639 | 32.67536 | 10715 ft | 276 kts | 191° |
| 2026-04-29 10:42 | -25.10521 | 32.67269 | 10574 ft | 269 kts | 191° |
| 2026-04-29 10:43 | -25.12360 | 32.67007 | 10494 ft | 263 kts | 191° |
| 2026-04-29 10:43 | -25.14161 | 32.66749 | 10351 ft | 259 kts | 191° |
| 2026-04-29 10:43 | -25.15931 | 32.66496 | 10206 ft | 252 kts | 191° |
| 2026-04-29 10:43 | -25.17671 | 32.66247 | 9996 ft | 250 kts | 191° |
| 2026-04-29 10:44 | -25.19372 | 32.66002 | 9753 ft | 250 kts | 191° |
| 2026-04-29 10:44 | -25.21118 | 32.65750 | 9514 ft | 255 kts | 191° |
| 2026-04-29 10:44 | -25.22909 | 32.65492 | 9292 ft | 263 kts | 190° |
| 2026-04-29 10:44 | -25.24745 | 32.65227 | 9036 ft | 269 kts | 190° |
| 2026-04-29 10:45 | -25.26602 | 32.64960 | 8769 ft | 268 kts | 190° |
| 2026-04-29 10:45 | -25.28447 | 32.64720 | 8505 ft | 267 kts | 184° |
| 2026-04-29 10:45 | -25.30310 | 32.64934 | 8180 ft | 272 kts | 173° |
| 2026-04-29 10:45 | -25.32175 | 32.65315 | 7853 ft | 271 kts | 171° |
| 2026-04-29 10:46 | -25.34012 | 32.65705 | 7572 ft | 264 kts | 171° |
| 2026-04-29 10:46 | -25.35761 | 32.66076 | 7322 ft | 254 kts | 171° |
| 2026-04-29 10:46 | -25.37468 | 32.66435 | 7094 ft | 245 kts | 171° |
| 2026-04-29 10:46 | -25.39123 | 32.66771 | 6851 ft | 238 kts | 171° |
| 2026-04-29 10:47 | -25.40729 | 32.67078 | 6618 ft | 231 kts | 171° |
| 2026-04-29 10:47 | -25.42306 | 32.67368 | 6388 ft | 227 kts | 171° |
| 2026-04-29 10:47 | -25.43832 | 32.67638 | 6165 ft | 222 kts | 171° |
| 2026-04-29 10:47 | -25.45333 | 32.67891 | 5949 ft | 215 kts | 171° |
| 2026-04-29 10:48 | -25.46788 | 32.68126 | 5742 ft | 208 kts | 171° |
| 2026-04-29 10:48 | -25.48202 | 32.68342 | 5546 ft | 202 kts | 171° |
| 2026-04-29 10:48 | -25.49570 | 32.68539 | 5347 ft | 195 kts | 171° |
| 2026-04-29 10:48 | -25.50897 | 32.68718 | 5139 ft | 189 kts | 171° |
| 2026-04-29 10:49 | -25.52183 | 32.68878 | 4928 ft | 183 kts | 172° |
| 2026-04-29 10:49 | -25.53440 | 32.68987 | 4721 ft | 179 kts | 173° |
| 2026-04-29 10:49 | -25.54671 | 32.69064 | 4576 ft | 177 kts | 174° |
| 2026-04-29 10:49 | -25.55899 | 32.69132 | 4455 ft | 177 kts | 173° |
| 2026-04-29 10:50 | -25.57146 | 32.69185 | 4349 ft | 182 kts | 175° |
| 2026-04-29 10:50 | -25.58430 | 32.69195 | 4258 ft | 186 kts | 177° |
| 2026-04-29 10:50 | -25.59722 | 32.69171 | 4127 ft | 185 kts | 178° |
| 2026-04-29 10:50 | -25.60987 | 32.69147 | 3965 ft | 178 kts | 178° |
| 2026-04-29 10:51 | -25.62214 | 32.69121 | 3825 ft | 174 kts | 178° |
| 2026-04-29 10:51 | -25.63411 | 32.69098 | 3694 ft | 175 kts | 178° |
| 2026-04-29 10:51 | -25.64637 | 32.69079 | 3525 ft | 177 kts | 178° |
| 2026-04-29 10:51 | -25.65873 | 32.69066 | 3368 ft | 178 kts | 178° |
| 2026-04-29 10:52 | -25.67117 | 32.69022 | 3218 ft | 179 kts | 180° |
| 2026-04-29 10:52 | -25.68358 | 32.68941 | 3049 ft | 178 kts | 180° |
| 2026-04-29 10:52 | -25.69593 | 32.68808 | 2873 ft | 180 kts | 193° |
| 2026-04-29 10:52 | -25.70353 | 32.68431 | 2764 ft | 182 kts | 205° |
| 2026-04-29 10:53 | -25.71479 | 32.67800 | 2576 ft | 180 kts | 201° |
| 2026-04-29 10:53 | -25.72601 | 32.67213 | 2402 ft | 175 kts | 202° |
| 2026-04-29 10:53 | -25.74030 | 32.66478 | 2170 ft | 167 kts | 201° |
| 2026-04-29 10:53 | -25.74739 | 32.66111 | 2049 ft | 164 kts | 202° |
| 2026-04-29 10:54 | -25.75754 | 32.65599 | 1846 ft | 157 kts | 201° |
| 2026-04-29 10:54 | -25.76747 | 32.65121 | 1738 ft | 158 kts | 196° |
| 2026-04-29 10:54 | -25.77835 | 32.64778 | 1721 ft | 163 kts | 192° |
| 2026-04-29 10:54 | -25.78907 | 32.64483 | 1718 ft | 154 kts | 192° |
| 2026-04-29 10:55 | -25.79917 | 32.64216 | 1691 ft | 144 kts | 191° |
| 2026-04-29 10:55 | -25.80867 | 32.63920 | 1703 ft | 143 kts | 196° |
| 2026-04-29 10:55 | -25.81772 | 32.63512 | 1684 ft | 137 kts | 203° |
| 2026-04-29 10:55 | -25.82614 | 32.63048 | 1699 ft | 132 kts | 204° |
| 2026-04-29 10:56 | -25.83422 | 32.62570 | 1537 ft | 129 kts | 206° |
| 2026-04-29 10:56 | -25.84206 | 32.62092 | 1371 ft | 132 kts | 206° |
| 2026-04-29 10:56 | -25.85019 | 32.61592 | 1193 ft | 131 kts | 206° |
| 2026-04-29 10:56 | -25.85805 | 32.61109 | 1026 ft | 130 kts | 207° |
| 2026-04-29 10:57 | -25.86583 | 32.60630 | 857 ft | 125 kts | 207° |
| 2026-04-29 10:57 | -25.87349 | 32.60160 | 703 ft | 127 kts | 208° |
| 2026-04-29 10:57 | -25.88128 | 32.59680 | 522 ft | 125 kts | 208° |
| 2026-04-29 10:57 | -25.88874 | 32.59221 | 356 ft | 119 kts | 209° |
| 2026-04-29 10:58 | -25.89603 | 32.58773 | 208 ft | 121 kts | 210° |
| 2026-04-29 10:58 | -25.90312 | 32.58333 | 140 ft | 104 kts | 209° |
| 2026-04-29 10:58 | -25.90810 | 32.58029 | 136 ft | 48 kts | 208° |
| 2026-04-29 10:58 | -25.90950 | 32.57953 | 137 ft | 11 kts | 186° |
| 2026-04-29 10:59 | -25.91025 | 32.57972 | 137 ft | 11 kts | 164° |
| 2026-04-29 10:59 | -25.91098 | 32.57995 | 135 ft | 11 kts | 165° |
| 2026-04-29 10:59 | -25.91170 | 32.58008 | 133 ft | 10 kts | 186° |
| 2026-04-29 10:59 | -25.91243 | 32.57976 | 133 ft | 12 kts | 208° |
| 2026-04-29 11:00 | -25.91332 | 32.57923 | 133 ft | 18 kts | 208° |
| 2026-04-29 11:00 | -25.91463 | 32.57844 | 133 ft | 25 kts | 209° |
| 2026-04-29 11:00 | -25.91618 | 32.57749 | 132 ft | 25 kts | 209° |
| 2026-04-29 11:00 | -25.91763 | 32.57661 | 132 ft | 19 kts | 210° |
| 2026-04-29 11:01 | -25.91878 | 32.57590 | 132 ft | 19 kts | 208° |
| 2026-04-29 11:01 | -25.91984 | 32.57525 | 132 ft | 10 kts | 209° |
| 2026-04-29 11:01 | -25.92047 | 32.57531 | 131 ft | 10 kts | 144° |
| 2026-04-29 11:01 | -25.92109 | 32.57557 | 128 ft | 10 kts | 175° |
| 2026-04-29 11:02 | -25.92174 | 32.57564 | 131 ft | 9 kts | 172° |
| 2026-04-29 11:02 | -25.92238 | 32.57571 | 132 ft | 9 kts | 175° |
| 2026-04-29 11:02 | -25.92293 | 32.57576 | 132 ft | 0 kts | 174° |